sensor_id;sensor_type;location;lat;lon;timestamp;pressure;altitude;pressure_sealevel;temperature;humidity
19023;BME280;35226;48.606;8.858;2023-04-06T00:00:25;96473.13;;;3.05;79.72
19023;BME280;35226;48.606;8.858;2023-04-06T00:02:51;96473.94;;;2.98;80.41
19023;BME280;35226;48.606;8.858;2023-04-06T00:05:18;96473.94;;;2.98;84.09
19023;BME280;35226;48.606;8.858;2023-04-06T00:07:44;96474.31;;;2.93;85.92
19023;BME280;35226;48.606;8.858;2023-04-06T00:10:10;96471.97;;;2.84;88.42
19023;BME280;35226;48.606;8.858;2023-04-06T00:12:36;96475.06;;;2.76;89.10
19023;BME280;35226;48.606;8.858;2023-04-06T00:15:01;96470.03;;;2.88;87.01
19023;BME280;35226;48.606;8.858;2023-04-06T00:17:27;96462.25;;;2.90;85.45
19023;BME280;35226;48.606;8.858;2023-04-06T00:19:53;96463.78;;;2.88;85.82
19023;BME280;35226;48.606;8.858;2023-04-06T00:22:19;96463.78;;;2.77;86.09
19023;BME280;35226;48.606;8.858;2023-04-06T00:24:44;96457.94;;;2.89;84.37
19023;BME280;35226;48.606;8.858;2023-04-06T00:27:10;96467.31;;;2.92;84.46
19023;BME280;35226;48.606;8.858;2023-04-06T00:29:39;96462.25;;;2.90;85.40
19023;BME280;35226;48.606;8.858;2023-04-06T00:32:05;96453.66;;;2.78;85.75
19023;BME280;35226;48.606;8.858;2023-04-06T00:34:31;96459.09;;;2.74;85.23
19023;BME280;35226;48.606;8.858;2023-04-06T00:36:57;96459.88;;;2.78;84.32
19023;BME280;35226;48.606;8.858;2023-04-06T00:39:23;96461.84;;;2.71;86.38
19023;BME280;35226;48.606;8.858;2023-04-06T00:41:51;96452.47;;;2.68;86.38
19023;BME280;35226;48.606;8.858;2023-04-06T00:44:17;96451.28;;;2.66;86.88
19023;BME280;35226;48.606;8.858;2023-04-06T00:46:43;96454.44;;;2.78;83.33
19023;BME280;35226;48.606;8.858;2023-04-06T00:49:09;96456.78;;;2.83;79.93
19023;BME280;35226;48.606;8.858;2023-04-06T00:51:35;96446.63;;;2.66;83.90
19023;BME280;35226;48.606;8.858;2023-04-06T00:54:01;96444.69;;;2.74;83.50
19023;BME280;35226;48.606;8.858;2023-04-06T00:56:29;96445.84;;;2.76;83.21
19023;BME280;35226;48.606;8.858;2023-04-06T00:58:55;96447.38;;;2.56;87.46
19023;BME280;35226;48.606;8.858;2023-04-06T01:01:21;96444.28;;;2.75;79.88
19023;BME280;35226;48.606;8.858;2023-04-06T01:03:49;96440.38;;;2.44;84.65
19023;BME280;35226;48.606;8.858;2023-04-06T01:06:16;96443.09;;;2.44;86.41
19023;BME280;35226;48.606;8.858;2023-04-06T01:08:46;96432.97;;;2.55;83.47
19023;BME280;35226;48.606;8.858;2023-04-06T01:11:18;96438.03;;;2.60;87.55
19023;BME280;35226;48.606;8.858;2023-04-06T01:13:46;96435.34;;;2.64;79.19
19023;BME280;35226;48.606;8.858;2023-04-06T01:16:25;96431.81;;;2.53;81.62
19023;BME280;35226;48.606;8.858;2023-04-06T01:19:10;96432.53;;;2.36;90.42
19023;BME280;35226;48.606;8.858;2023-04-06T01:21:39;96434.13;;;2.33;89.83
19023;BME280;35226;48.606;8.858;2023-04-06T01:24:26;96426.31;;;2.32;91.69
19023;BME280;35226;48.606;8.858;2023-04-06T01:27:17;96430.19;;;2.23;89.39
19023;BME280;35226;48.606;8.858;2023-04-06T01:29:48;96435.22;;;2.11;88.89
19023;BME280;35226;48.606;8.858;2023-04-06T01:32:25;96421.63;;;2.21;92.90
19023;BME280;35226;48.606;8.858;2023-04-06T01:34:51;96421.25;;;2.23;92.48
19023;BME280;35226;48.606;8.858;2023-04-06T01:37:17;96415.00;;;2.15;91.68
19023;BME280;35226;48.606;8.858;2023-04-06T01:39:43;96423.94;;;2.16;91.49
19023;BME280;35226;48.606;8.858;2023-04-06T01:42:14;96420.44;;;2.19;90.87
19023;BME280;35226;48.606;8.858;2023-04-06T01:44:40;96417.31;;;2.10;92.18
19023;BME280;35226;48.606;8.858;2023-04-06T01:47:10;96428.19;;;1.96;91.69
19023;BME280;35226;48.606;8.858;2023-04-06T01:49:36;96425.31;;;1.67;94.64
19023;BME280;35226;48.606;8.858;2023-04-06T01:52:02;96429.31;;;1.98;93.16
19023;BME280;35226;48.606;8.858;2023-04-06T01:54:29;96424.66;;;1.99;90.19
19023;BME280;35226;48.606;8.858;2023-04-06T01:57:10;96423.97;;;1.33;95.27
19023;BME280;35226;48.606;8.858;2023-04-06T01:59:56;96418.00;;;1.89;93.40
19023;BME280;35226;48.606;8.858;2023-04-06T02:02:38;96415.69;;;1.98;88.63
19023;BME280;35226;48.606;8.858;2023-04-06T02:05:10;96413.84;;;1.26;96.61
19023;BME280;35226;48.606;8.858;2023-04-06T02:07:37;96411.19;;;1.37;99.58
19023;BME280;35226;48.606;8.858;2023-04-06T02:10:03;96418.50;;;1.26;100.00
19023;BME280;35226;48.606;8.858;2023-04-06T02:12:36;96420.44;;;1.29;99.82
19023;BME280;35226;48.606;8.858;2023-04-06T02:15:03;96413.69;;;1.81;96.77
19023;BME280;35226;48.606;8.858;2023-04-06T02:17:29;96414.88;;;1.87;94.80
19023;BME280;35226;48.606;8.858;2023-04-06T02:19:54;96406.72;;;1.91;95.85
19023;BME280;35226;48.606;8.858;2023-04-06T02:22:20;96408.28;;;1.88;95.03
19023;BME280;35226;48.606;8.858;2023-04-06T02:24:46;96405.19;;;1.93;95.47
19023;BME280;35226;48.606;8.858;2023-04-06T02:27:14;96412.19;;;1.91;96.20
19023;BME280;35226;48.606;8.858;2023-04-06T02:29:39;96415.28;;;1.85;95.11
19023;BME280;35226;48.606;8.858;2023-04-06T02:32:05;96411.75;;;1.81;97.76
19023;BME280;35226;48.606;8.858;2023-04-06T02:34:31;96413.31;;;1.75;99.72
19023;BME280;35226;48.606;8.858;2023-04-06T02:36:57;96404.72;;;1.73;99.87
19023;BME280;35226;48.606;8.858;2023-04-06T02:39:23;96405.53;;;1.81;98.69
19023;BME280;35226;48.606;8.858;2023-04-06T02:41:49;96398.19;;;1.96;96.01
19023;BME280;35226;48.606;8.858;2023-04-06T02:44:24;96403.97;;;1.80;90.71
19023;BME280;35226;48.606;8.858;2023-04-06T02:46:50;96397.44;;;2.16;86.20
19023;BME280;35226;48.606;8.858;2023-04-06T02:49:16;96400.56;;;2.04;91.81
19023;BME280;35226;48.606;8.858;2023-04-06T02:51:43;96399.38;;;1.95;93.45
19023;BME280;35226;48.606;8.858;2023-04-06T02:54:22;96395.09;;;2.08;92.72
19023;BME280;35226;48.606;8.858;2023-04-06T02:56:47;96395.47;;;1.96;94.94
19023;BME280;35226;48.606;8.858;2023-04-06T02:59:13;96401.31;;;2.01;93.21
19023;BME280;35226;48.606;8.858;2023-04-06T03:01:45;96398.06;;;1.67;91.68
19023;BME280;35226;48.606;8.858;2023-04-06T03:04:10;96397.75;;;1.83;95.71
19023;BME280;35226;48.606;8.858;2023-04-06T03:06:36;96403.59;;;1.89;94.36
19023;BME280;35226;48.606;8.858;2023-04-06T03:09:11;96393.16;;;2.01;92.97
19023;BME280;35226;48.606;8.858;2023-04-06T03:11:40;96391.16;;;1.88;94.27
19023;BME280;35226;48.606;8.858;2023-04-06T03:14:06;96399.72;;;1.90;94.83
19023;BME280;35226;48.606;8.858;2023-04-06T03:16:33;96400.88;;;1.81;93.49
19023;BME280;35226;48.606;8.858;2023-04-06T03:19:00;96403.19;;;1.79;94.75
19023;BME280;35226;48.606;8.858;2023-04-06T03:21:26;96398.50;;;1.76;96.44
19023;BME280;35226;48.606;8.858;2023-04-06T03:23:52;96404.72;;;1.77;97.25
19023;BME280;35226;48.606;8.858;2023-04-06T03:26:18;96397.75;;;1.76;95.76
19023;BME280;35226;48.606;8.858;2023-04-06T03:28:44;96400.44;;;1.72;97.14
19023;BME280;35226;48.606;8.858;2023-04-06T03:31:10;96407.09;;;1.75;95.88
19023;BME280;35226;48.606;8.858;2023-04-06T03:33:51;96404.34;;;1.78;94.07
19023;BME280;35226;48.606;8.858;2023-04-06T03:36:24;96407.06;;;1.71;94.93
19023;BME280;35226;48.606;8.858;2023-04-06T03:38:52;96407.88;;;1.75;92.73
19023;BME280;35226;48.606;8.858;2023-04-06T03:41:19;96408.22;;;1.70;95.20
19023;BME280;35226;48.606;8.858;2023-04-06T03:43:53;96412.47;;;1.68;96.16
19023;BME280;35226;48.606;8.858;2023-04-06T03:46:19;96403.53;;;1.64;96.57
19023;BME280;35226;48.606;8.858;2023-04-06T03:48:48;96407.44;;;1.66;97.46
19023;BME280;35226;48.606;8.858;2023-04-06T03:51:16;96405.88;;;1.65;97.39
19023;BME280;35226;48.606;8.858;2023-04-06T03:53:42;96414.03;;;1.65;96.59
19023;BME280;35226;48.606;8.858;2023-04-06T03:56:07;96410.78;;;1.38;94.86
19023;BME280;35226;48.606;8.858;2023-04-06T03:58:33;96416.72;;;1.55;98.35
19023;BME280;35226;48.606;8.858;2023-04-06T04:00:59;96416.75;;;1.65;95.90
19023;BME280;35226;48.606;8.858;2023-04-06T04:03:24;96415.59;;;1.70;97.42
19023;BME280;35226;48.606;8.858;2023-04-06T04:05:52;96422.63;;;1.71;95.87
19023;BME280;35226;48.606;8.858;2023-04-06T04:08:18;96420.94;;;1.48;96.03
19023;BME280;35226;48.606;8.858;2023-04-06T04:10:44;96423.16;;;1.25;94.74
19023;BME280;35226;48.606;8.858;2023-04-06T04:13:12;96427.59;;;0.93;99.41
19023;BME280;35226;48.606;8.858;2023-04-06T04:15:38;96425.09;;;1.25;97.53
19023;BME280;35226;48.606;8.858;2023-04-06T04:18:03;96415.50;;;1.48;95.29
19023;BME280;35226;48.606;8.858;2023-04-06T04:20:29;96421.38;;;1.58;95.61
19023;BME280;35226;48.606;8.858;2023-04-06T04:22:55;96420.94;;;1.48;95.56
19023;BME280;35226;48.606;8.858;2023-04-06T04:25:20;96418.81;;;1.14;95.23
19023;BME280;35226;48.606;8.858;2023-04-06T04:27:48;96431.59;;;1.09;99.37
19023;BME280;35226;48.606;8.858;2023-04-06T04:30:14;96418.13;;;1.27;96.56
19023;BME280;35226;48.606;8.858;2023-04-06T04:32:40;96431.16;;;1.00;99.13
19023;BME280;35226;48.606;8.858;2023-04-06T04:35:08;96428.72;;;0.85;100.00
19023;BME280;35226;48.606;8.858;2023-04-06T04:37:41;96421.31;;;1.43;97.91
19023;BME280;35226;48.606;8.858;2023-04-06T04:40:08;96437.03;;;1.06;99.37
19023;BME280;35226;48.606;8.858;2023-04-06T04:42:43;96439.06;;;0.68;100.00
19023;BME280;35226;48.606;8.858;2023-04-06T04:45:15;96432.88;;;1.26;100.00
19023;BME280;35226;48.606;8.858;2023-04-06T04:47:41;96434.84;;;1.29;100.00
19023;BME280;35226;48.606;8.858;2023-04-06T04:50:07;96438.53;;;1.00;100.00
19023;BME280;35226;48.606;8.858;2023-04-06T04:52:37;96438.41;;;0.82;100.00
19023;BME280;35226;48.606;8.858;2023-04-06T04:55:29;96441.47;;;0.77;100.00
19023;BME280;35226;48.606;8.858;2023-04-06T04:57:57;96437.31;;;0.46;100.00
19023;BME280;35226;48.606;8.858;2023-04-06T05:00:35;96440.13;;;1.08;100.00
19023;BME280;35226;48.606;8.858;2023-04-06T05:03:01;96447.53;;;0.60;100.00
19023;BME280;35226;48.606;8.858;2023-04-06T05:05:30;96443.28;;;0.62;100.00
19023;BME280;35226;48.606;8.858;2023-04-06T05:07:56;96444.69;;;0.46;100.00
19023;BME280;35226;48.606;8.858;2023-04-06T05:10:42;96446.25;;;0.50;100.00
19023;BME280;35226;48.606;8.858;2023-04-06T05:13:08;96450.88;;;0.87;100.00
19023;BME280;35226;48.606;8.858;2023-04-06T05:15:34;96447.28;;;0.76;100.00
19023;BME280;35226;48.606;8.858;2023-04-06T05:18:27;96448.06;;;0.76;100.00
19023;BME280;35226;48.606;8.858;2023-04-06T05:20:54;96448.28;;;1.08;100.00
19023;BME280;35226;48.606;8.858;2023-04-06T05:23:26;96454.59;;;1.19;100.00
19023;BME280;35226;48.606;8.858;2023-04-06T05:25:53;96456.53;;;1.19;100.00
19023;BME280;35226;48.606;8.858;2023-04-06T05:28:21;96453.72;;;0.57;100.00
19023;BME280;35226;48.606;8.858;2023-04-06T05:30:47;96454.13;;;1.06;100.00
19023;BME280;35226;48.606;8.858;2023-04-06T05:33:14;96460.06;;;1.23;100.00
19023;BME280;35226;48.606;8.858;2023-04-06T05:35:59;96455.97;;;1.50;100.00
19023;BME280;35226;48.606;8.858;2023-04-06T05:38:26;96454.97;;;1.18;100.00
19023;BME280;35226;48.606;8.858;2023-04-06T05:40:54;96450.00;;;1.30;100.00
19023;BME280;35226;48.606;8.858;2023-04-06T05:43:24;96447.88;;;1.68;100.00
19023;BME280;35226;48.606;8.858;2023-04-06T05:45:56;96451.66;;;1.45;100.00
19023;BME280;35226;48.606;8.858;2023-04-06T05:48:22;96449.50;;;1.76;100.00
19023;BME280;35226;48.606;8.858;2023-04-06T05:50:50;96456.47;;;1.73;100.00
19023;BME280;35226;48.606;8.858;2023-04-06T05:53:20;96456.88;;;1.79;100.00
19023;BME280;35226;48.606;8.858;2023-04-06T05:55:51;96462.75;;;1.88;100.00
19023;BME280;35226;48.606;8.858;2023-04-06T05:58:19;96461.53;;;1.71;100.00
19023;BME280;35226;48.606;8.858;2023-04-06T06:00:47;96462.03;;;2.02;100.00
19023;BME280;35226;48.606;8.858;2023-04-06T06:03:15;96468.59;;;1.83;100.00
19023;BME280;35226;48.606;8.858;2023-04-06T06:05:46;96467.81;;;1.82;100.00
19023;BME280;35226;48.606;8.858;2023-04-06T06:08:18;96478.84;;;1.42;100.00
19023;BME280;35226;48.606;8.858;2023-04-06T06:10:46;96472.50;;;1.85;100.00
19023;BME280;35226;48.606;8.858;2023-04-06T06:13:12;96471.31;;;1.83;100.00
19023;BME280;35226;48.606;8.858;2023-04-06T06:15:38;96472.78;;;1.66;100.00
19023;BME280;35226;48.606;8.858;2023-04-06T06:18:04;96481.47;;;1.97;100.00
19023;BME280;35226;48.606;8.858;2023-04-06T06:20:30;96477.91;;;1.82;100.00
19023;BME280;35226;48.606;8.858;2023-04-06T06:23:00;96480.00;;;2.13;100.00
19023;BME280;35226;48.606;8.858;2023-04-06T06:25:26;96477.66;;;2.12;100.00
19023;BME280;35226;48.606;8.858;2023-04-06T06:27:51;96470.25;;;2.09;100.00
19023;BME280;35226;48.606;8.858;2023-04-06T06:30:18;96485.28;;;1.78;100.00
19023;BME280;35226;48.606;8.858;2023-04-06T06:32:44;96475.59;;;1.84;100.00
19023;BME280;35226;48.606;8.858;2023-04-06T06:35:10;96477.00;;;2.54;100.00
19023;BME280;35226;48.606;8.858;2023-04-06T06:37:36;96481.28;;;2.58;100.00
19023;BME280;35226;48.606;8.858;2023-04-06T06:40:03;96486.66;;;2.30;100.00
19023;BME280;35226;48.606;8.858;2023-04-06T06:42:30;96485.38;;;1.99;100.00
19023;BME280;35226;48.606;8.858;2023-04-06T06:45:11;96487.94;;;1.64;100.00
19023;BME280;35226;48.606;8.858;2023-04-06T06:47:36;96482.22;;;1.90;100.00
19023;BME280;35226;48.606;8.858;2023-04-06T06:50:02;96489.66;;;1.93;100.00
19023;BME280;35226;48.606;8.858;2023-04-06T06:52:28;96495.91;;;2.01;100.00
19023;BME280;35226;48.606;8.858;2023-04-06T06:54:54;96494.09;;;2.37;100.00
19023;BME280;35226;48.606;8.858;2023-04-06T06:57:21;96492.09;;;2.23;100.00
19023;BME280;35226;48.606;8.858;2023-04-06T06:59:47;96487.94;;;2.68;100.00
19023;BME280;35226;48.606;8.858;2023-04-06T07:02:13;96490.56;;;2.36;100.00
19023;BME280;35226;48.606;8.858;2023-04-06T07:04:38;96487.91;;;2.57;100.00
19023;BME280;35226;48.606;8.858;2023-04-06T07:07:04;96487.94;;;2.86;100.00
19023;BME280;35226;48.606;8.858;2023-04-06T07:09:29;96480.56;;;3.01;100.00
19023;BME280;35226;48.606;8.858;2023-04-06T07:11:55;96485.22;;;3.25;100.00
19023;BME280;35226;48.606;8.858;2023-04-06T07:14:22;96482.88;;;3.41;100.00
19023;BME280;35226;48.606;8.858;2023-04-06T07:16:47;96482.09;;;3.51;100.00
19023;BME280;35226;48.606;8.858;2023-04-06T07:19:15;96484.06;;;3.40;100.00
19023;BME280;35226;48.606;8.858;2023-04-06T07:21:41;96477.75;;;3.71;100.00
19023;BME280;35226;48.606;8.858;2023-04-06T07:24:07;96484.06;;;3.12;100.00
19023;BME280;35226;48.606;8.858;2023-04-06T07:26:32;96490.31;;;3.09;100.00
19023;BME280;35226;48.606;8.858;2023-04-06T07:28:58;96485.53;;;3.73;100.00
19023;BME280;35226;48.606;8.858;2023-04-06T07:31:24;96483.94;;;4.00;100.00
19023;BME280;35226;48.606;8.858;2023-04-06T07:33:51;96484.63;;;4.12;100.00
19023;BME280;35226;48.606;8.858;2023-04-06T07:36:17;96492.56;;;3.74;100.00
19023;BME280;35226;48.606;8.858;2023-04-06T07:38:43;96489.09;;;3.59;100.00
19023;BME280;35226;48.606;8.858;2023-04-06T07:41:11;96489.72;;;4.20;100.00
19023;BME280;35226;48.606;8.858;2023-04-06T07:43:38;96483.72;;;4.46;100.00
19023;BME280;35226;48.606;8.858;2023-04-06T07:46:05;96484.06;;;4.52;100.00
19023;BME280;35226;48.606;8.858;2023-04-06T07:48:31;96490.38;;;4.42;100.00
19023;BME280;35226;48.606;8.858;2023-04-06T07:51:03;96490.81;;;4.33;100.00
19023;BME280;35226;48.606;8.858;2023-04-06T07:53:32;96485.94;;;4.69;100.00
19023;BME280;35226;48.606;8.858;2023-04-06T07:55:58;96487.84;;;4.76;100.00
19023;BME280;35226;48.606;8.858;2023-04-06T07:58:24;96492.59;;;4.61;100.00
19023;BME280;35226;48.606;8.858;2023-04-06T08:00:50;96486.75;;;4.63;100.00
19023;BME280;35226;48.606;8.858;2023-04-06T08:03:15;96490.25;;;5.22;100.00
19023;BME280;35226;48.606;8.858;2023-04-06T08:05:42;96488.97;;;5.37;100.00
19023;BME280;35226;48.606;8.858;2023-04-06T08:08:08;96486.94;;;5.45;100.00
19023;BME280;35226;48.606;8.858;2023-04-06T08:10:34;96488.00;;;5.54;100.00
19023;BME280;35226;48.606;8.858;2023-04-06T08:13:00;96485.69;;;5.53;100.00
19023;BME280;35226;48.606;8.858;2023-04-06T08:15:25;96489.97;;;5.57;100.00
19023;BME280;35226;48.606;8.858;2023-04-06T08:17:51;96485.09;;;5.72;99.63
19023;BME280;35226;48.606;8.858;2023-04-06T08:20:17;96477.50;;;5.90;100.00
19023;BME280;35226;48.606;8.858;2023-04-06T08:22:43;96482.47;;;6.03;98.85
19023;BME280;35226;48.606;8.858;2023-04-06T08:25:09;96478.94;;;6.02;94.27
19023;BME280;35226;48.606;8.858;2023-04-06T08:27:34;96472.22;;;6.37;99.00
19023;BME280;35226;48.606;8.858;2023-04-06T08:30:00;96470.00;;;6.59;93.27
19023;BME280;35226;48.606;8.858;2023-04-06T08:32:26;96478.09;;;6.69;90.37
19023;BME280;35226;48.606;8.858;2023-04-06T08:34:55;96482.91;;;6.31;89.62
19023;BME280;35226;48.606;8.858;2023-04-06T08:37:21;96474.94;;;6.71;90.18
19023;BME280;35226;48.606;8.858;2023-04-06T08:39:47;96474.41;;;6.53;87.47
19023;BME280;35226;48.606;8.858;2023-04-06T08:42:19;96473.56;;;6.56;87.48
19023;BME280;35226;48.606;8.858;2023-04-06T08:44:46;96469.75;;;6.77;87.51
19023;BME280;35226;48.606;8.858;2023-04-06T08:47:12;96465.53;;;6.68;87.77
19023;BME280;35226;48.606;8.858;2023-04-06T08:49:38;96461.50;;;7.03;86.16
19023;BME280;35226;48.606;8.858;2023-04-06T08:52:07;96461.16;;;7.25;82.78
19023;BME280;35226;48.606;8.858;2023-04-06T08:54:34;96462.31;;;7.51;86.13
19023;BME280;35226;48.606;8.858;2023-04-06T08:57:00;96466.75;;;7.64;79.75
19023;BME280;35226;48.606;8.858;2023-04-06T08:59:27;96460.50;;;7.64;80.94
19023;BME280;35226;48.606;8.858;2023-04-06T09:01:54;96461.16;;;7.48;76.77
19023;BME280;35226;48.606;8.858;2023-04-06T09:04:21;96463.13;;;7.71;73.48
19023;BME280;35226;48.606;8.858;2023-04-06T09:06:49;96462.94;;;7.82;72.86
19023;BME280;35226;48.606;8.858;2023-04-06T09:09:15;96461.75;;;8.22;68.85
19023;BME280;35226;48.606;8.858;2023-04-06T09:11:49;96455.56;;;8.38;66.63
19023;BME280;35226;48.606;8.858;2023-04-06T09:14:16;96456.09;;;8.29;66.01
19023;BME280;35226;48.606;8.858;2023-04-06T09:16:45;96453.50;;;8.42;65.07
19023;BME280;35226;48.606;8.858;2023-04-06T09:19:12;96453.22;;;8.72;65.97
19023;BME280;35226;48.606;8.858;2023-04-06T09:21:38;96458.72;;;8.56;61.54
19023;BME280;35226;48.606;8.858;2023-04-06T09:24:07;96452.44;;;9.08;64.53
19023;BME280;35226;48.606;8.858;2023-04-06T09:26:44;96449.94;;;9.30;56.83
19023;BME280;35226;48.606;8.858;2023-04-06T09:29:22;96463.38;;;9.44;57.05
19023;BME280;35226;48.606;8.858;2023-04-06T09:31:48;96452.84;;;9.06;51.16
19023;BME280;35226;48.606;8.858;2023-04-06T09:34:23;96454.31;;;9.11;49.18
19023;BME280;35226;48.606;8.858;2023-04-06T09:36:49;96455.28;;;9.82;50.58
19023;BME280;35226;48.606;8.858;2023-04-06T09:39:20;96456.69;;;10.19;52.02
19023;BME280;35226;48.606;8.858;2023-04-06T09:41:50;96451.44;;;9.79;47.19
19023;BME280;35226;48.606;8.858;2023-04-06T09:44:15;96459.59;;;10.28;45.40
19023;BME280;35226;48.606;8.858;2023-04-06T09:46:42;96455.69;;;10.54;45.97
19023;BME280;35226;48.606;8.858;2023-04-06T09:49:09;96453.22;;;10.44;47.38
19023;BME280;35226;48.606;8.858;2023-04-06T09:51:57;96441.56;;;11.16;47.33
19023;BME280;35226;48.606;8.858;2023-04-06T09:54:31;96433.72;;;10.76;45.30
19023;BME280;35226;48.606;8.858;2023-04-06T09:59:51;96437.25;;;10.89;42.20
19023;BME280;35226;48.606;8.858;2023-04-06T10:05:35;96432.25;;;10.97;41.82
19023;BME280;35226;48.606;8.858;2023-04-06T10:08:14;96425.97;;;11.69;40.42
19023;BME280;35226;48.606;8.858;2023-04-06T10:10:41;96426.81;;;11.91;39.35
19023;BME280;35226;48.606;8.858;2023-04-06T10:13:10;96427.06;;;11.24;38.16
19023;BME280;35226;48.606;8.858;2023-04-06T10:15:38;96421.59;;;11.46;39.21
19023;BME280;35226;48.606;8.858;2023-04-06T10:18:03;96423.75;;;11.76;40.63
19023;BME280;35226;48.606;8.858;2023-04-06T10:20:54;96422.97;;;12.32;37.61
19023;BME280;35226;48.606;8.858;2023-04-06T10:26:02;96424.41;;;11.80;38.21
19023;BME280;35226;48.606;8.858;2023-04-06T10:28:34;96423.94;;;12.69;38.13
19023;BME280;35226;48.606;8.858;2023-04-06T10:31:05;96418.31;;;12.82;37.21
19023;BME280;35226;48.606;8.858;2023-04-06T10:33:31;96414.19;;;13.26;35.41
19023;BME280;35226;48.606;8.858;2023-04-06T10:35:57;96420.41;;;13.49;36.85
19023;BME280;35226;48.606;8.858;2023-04-06T10:38:33;96428.41;;;13.38;34.83
19023;BME280;35226;48.606;8.858;2023-04-06T10:41:10;96420.25;;;13.52;33.22
19023;BME280;35226;48.606;8.858;2023-04-06T10:43:38;96420.53;;;13.36;33.50
19023;BME280;35226;48.606;8.858;2023-04-06T10:46:07;96424.22;;;13.33;33.35
19023;BME280;35226;48.606;8.858;2023-04-06T10:48:40;96414.06;;;13.39;31.39
19023;BME280;35226;48.606;8.858;2023-04-06T10:51:13;96411.19;;;14.06;32.63
19023;BME280;35226;48.606;8.858;2023-04-06T10:53:42;96414.13;;;14.49;31.41
19023;BME280;35226;48.606;8.858;2023-04-06T10:56:14;96408.06;;;14.32;30.92
19023;BME280;35226;48.606;8.858;2023-04-06T10:58:58;96407.28;;;14.31;29.63
19023;BME280;35226;48.606;8.858;2023-04-06T11:01:24;96405.94;;;14.45;31.03
19023;BME280;35226;48.606;8.858;2023-04-06T11:03:55;96412.84;;;15.01;31.17
19023;BME280;35226;48.606;8.858;2023-04-06T11:06:25;96409.81;;;15.23;28.95
19023;BME280;35226;48.606;8.858;2023-04-06T11:08:53;96404.72;;;15.78;27.17
19023;BME280;35226;48.606;8.858;2023-04-06T11:11:21;96396.63;;;16.04;27.93
19023;BME280;35226;48.606;8.858;2023-04-06T11:13:52;96398.31;;;16.25;27.99
19023;BME280;35226;48.606;8.858;2023-04-06T11:18:52;96395.84;;;15.65;27.03
19023;BME280;35226;48.606;8.858;2023-04-06T11:21:19;96392.94;;;15.59;28.04
19023;BME280;35226;48.606;8.858;2023-04-06T11:23:45;96387.09;;;15.24;26.04
19023;BME280;35226;48.606;8.858;2023-04-06T11:26:12;96388.06;;;15.12;26.10
19023;BME280;35226;48.606;8.858;2023-04-06T11:28:39;96386.63;;;14.93;26.36
19023;BME280;35226;48.606;8.858;2023-04-06T11:31:05;96377.56;;;14.74;28.09
19023;BME280;35226;48.606;8.858;2023-04-06T11:33:40;96379.00;;;15.35;27.75
19023;BME280;35226;48.606;8.858;2023-04-06T11:36:06;96381.72;;;15.68;27.80
19023;BME280;35226;48.606;8.858;2023-04-06T11:38:32;96380.19;;;15.67;27.35
19023;BME280;35226;48.606;8.858;2023-04-06T11:40:58;96375.38;;;16.74;26.42
19023;BME280;35226;48.606;8.858;2023-04-06T11:43:30;96367.06;;;16.36;24.39
19023;BME280;35226;48.606;8.858;2023-04-06T11:46:05;96366.59;;;16.67;25.59
19023;BME280;35226;48.606;8.858;2023-04-06T11:48:31;96358.00;;;16.99;25.32
19023;BME280;35226;48.606;8.858;2023-04-06T11:50:58;96370.63;;;16.80;26.73
19023;BME280;35226;48.606;8.858;2023-04-06T11:53:28;96366.28;;;16.20;27.25
19023;BME280;35226;48.606;8.858;2023-04-06T11:55:55;96359.97;;;16.79;29.67
19023;BME280;35226;48.606;8.858;2023-04-06T11:58:21;96350.59;;;17.31;25.43
19023;BME280;35226;48.606;8.858;2023-04-06T12:00:47;96342.84;;;17.21;25.72
19023;BME280;35226;48.606;8.858;2023-04-06T12:03:13;96346.94;;;17.25;27.15
19023;BME280;35226;48.606;8.858;2023-04-06T12:05:39;96344.50;;;17.68;26.76
19023;BME280;35226;48.606;8.858;2023-04-06T12:08:04;96345.09;;;17.02;25.51
19023;BME280;35226;48.606;8.858;2023-04-06T12:10:30;96333.84;;;17.92;24.63
19023;BME280;35226;48.606;8.858;2023-04-06T12:12:56;96334.56;;;17.67;25.33
19023;BME280;35226;48.606;8.858;2023-04-06T12:15:21;96341.38;;;18.06;26.01
19023;BME280;35226;48.606;8.858;2023-04-06T12:17:47;96338.41;;;17.90;25.41
19023;BME280;35226;48.606;8.858;2023-04-06T12:20:14;96335.22;;;18.02;25.12
19023;BME280;35226;48.606;8.858;2023-04-06T12:22:40;96337.69;;;17.54;25.96
19023;BME280;35226;48.606;8.858;2023-04-06T12:25:06;96323.50;;;18.50;24.78
19023;BME280;35226;48.606;8.858;2023-04-06T12:27:34;96323.13;;;18.11;26.54
19023;BME280;35226;48.606;8.858;2023-04-06T12:30:00;96322.72;;;17.98;28.04
19023;BME280;35226;48.606;8.858;2023-04-06T12:32:26;96323.06;;;18.31;25.26
19023;BME280;35226;48.606;8.858;2023-04-06T12:34:54;96324.91;;;19.88;24.11
19023;BME280;35226;48.606;8.858;2023-04-06T12:37:20;96324.22;;;18.19;24.18
19023;BME280;35226;48.606;8.858;2023-04-06T12:39:46;96319.53;;;18.31;25.83
19023;BME280;35226;48.606;8.858;2023-04-06T12:42:12;96312.94;;;18.08;26.90
19023;BME280;35226;48.606;8.858;2023-04-06T12:44:38;96313.66;;;17.83;26.87
19023;BME280;35226;48.606;8.858;2023-04-06T12:47:04;96313.72;;;17.62;28.23
19023;BME280;35226;48.606;8.858;2023-04-06T12:49:30;96312.16;;;18.07;26.43
19023;BME280;35226;48.606;8.858;2023-04-06T12:51:56;96311.09;;;18.05;27.20
19023;BME280;35226;48.606;8.858;2023-04-06T12:54:22;96306.28;;;18.31;25.76
19023;BME280;35226;48.606;8.858;2023-04-06T12:56:48;96303.78;;;18.96;24.98
19023;BME280;35226;48.606;8.858;2023-04-06T12:59:13;96310.66;;;19.38;25.23
19023;BME280;35226;48.606;8.858;2023-04-06T13:01:39;96309.09;;;18.94;24.95
19023;BME280;35226;48.606;8.858;2023-04-06T13:04:04;96302.75;;;19.36;24.53
19023;BME280;35226;48.606;8.858;2023-04-06T13:06:30;96306.53;;;18.91;24.40
19023;BME280;35226;48.606;8.858;2023-04-06T13:08:56;96303.72;;;18.91;25.74
19023;BME280;35226;48.606;8.858;2023-04-06T13:11:21;96297.00;;;19.14;25.31
19023;BME280;35226;48.606;8.858;2023-04-06T13:13:49;96293.44;;;19.13;25.90
19023;BME280;35226;48.606;8.858;2023-04-06T13:16:14;96294.75;;;18.49;26.79
19023;BME280;35226;48.606;8.858;2023-04-06T13:18:40;96287.84;;;17.93;27.08
19023;BME280;35226;48.606;8.858;2023-04-06T13:21:06;96301.19;;;17.78;26.59